sensor_id;sensor_type;location;lat;lon;timestamp;temperature;humidity
75170;SHT31;63749;49.186;9.222;2023-03-01T00:01:07;-1.53;78.32
75170;SHT31;63749;49.186;9.222;2023-03-01T00:03:33;-1.58;78.69
75170;SHT31;63749;49.186;9.222;2023-03-01T00:06:01;-1.55;78.96
75170;SHT31;63749;49.186;9.222;2023-03-01T00:08:27;-1.52;78.64
75170;SHT31;63749;49.186;9.222;2023-03-01T00:11:13;-1.50;78.55
75170;SHT31;63749;49.186;9.222;2023-03-01T00:13:39;-1.46;78.32
75170;SHT31;63749;49.186;9.222;2023-03-01T00:16:09;-1.46;78.20
75170;SHT31;63749;49.186;9.222;2023-03-01T00:18:35;-1.42;78.59
75170;SHT31;63749;49.186;9.222;2023-03-01T00:21:00;-1.42;78.82
75170;SHT31;63749;49.186;9.222;2023-03-01T00:23:26;-1.25;78.12
75170;SHT31;63749;49.186;9.222;2023-03-01T00:25:52;-1.35;78.12
75170;SHT31;63749;49.186;9.222;2023-03-01T00:28:18;-1.41;78.23
75170;SHT31;63749;49.186;9.222;2023-03-01T00:30:44;-1.34;78.09
75170;SHT31;63749;49.186;9.222;2023-03-01T00:33:09;-1.36;78.39
75170;SHT31;63749;49.186;9.222;2023-03-01T00:35:36;-1.42;79.00
75170;SHT31;63749;49.186;9.222;2023-03-01T00:38:02;-1.42;79.04
75170;SHT31;63749;49.186;9.222;2023-03-01T00:40:31;-1.41;78.98
75170;SHT31;63749;49.186;9.222;2023-03-01T00:42:57;-1.21;78.38
75170;SHT31;63749;49.186;9.222;2023-03-01T00:45:23;-1.19;78.44
75170;SHT31;63749;49.186;9.222;2023-03-01T00:47:49;-1.21;78.19
75170;SHT31;63749;49.186;9.222;2023-03-01T00:50:15;-1.22;78.31
75170;SHT31;63749;49.186;9.222;2023-03-01T00:52:40;-1.22;78.11
75170;SHT31;63749;49.186;9.222;2023-03-01T00:55:06;-1.28;78.52
75170;SHT31;63749;49.186;9.222;2023-03-01T00:57:32;-1.25;78.33
75170;SHT31;63749;49.186;9.222;2023-03-01T00:59:58;-1.25;78.77
75170;SHT31;63749;49.186;9.222;2023-03-01T01:02:23;-1.36;79.12
75170;SHT31;63749;49.186;9.222;2023-03-01T01:04:50;-1.29;78.94
75170;SHT31;63749;49.186;9.222;2023-03-01T01:07:16;-1.29;78.97
75170;SHT31;63749;49.186;9.222;2023-03-01T01:09:42;-1.16;78.46
75170;SHT31;63749;49.186;9.222;2023-03-01T01:12:08;-0.97;77.63
75170;SHT31;63749;49.186;9.222;2023-03-01T01:14:34;-0.90;77.27
75170;SHT31;63749;49.186;9.222;2023-03-01T01:16:59;-0.91;77.57
75170;SHT31;63749;49.186;9.222;2023-03-01T01:19:25;-0.85;77.06
75170;SHT31;63749;49.186;9.222;2023-03-01T01:21:51;-0.90;77.03
75170;SHT31;63749;49.186;9.222;2023-03-01T01:24:17;-0.90;77.15
75170;SHT31;63749;49.186;9.222;2023-03-01T01:26:43;-0.98;77.43
75170;SHT31;63749;49.186;9.222;2023-03-01T01:29:09;-0.97;77.54
75170;SHT31;63749;49.186;9.222;2023-03-01T01:31:36;-0.92;77.65
75170;SHT31;63749;49.186;9.222;2023-03-01T01:34:04;-0.90;77.17
75170;SHT31;63749;49.186;9.222;2023-03-01T01:36:32;-0.97;77.40
75170;SHT31;63749;49.186;9.222;2023-03-01T01:38:57;-1.01;77.50
75170;SHT31;63749;49.186;9.222;2023-03-01T01:41:23;-1.16;78.18
75170;SHT31;63749;49.186;9.222;2023-03-01T01:44:14;-1.36;78.94
75170;SHT31;63749;49.186;9.222;2023-03-01T01:47:07;-1.41;79.50
75170;SHT31;63749;49.186;9.222;2023-03-01T01:49:42;-1.52;79.53
75170;SHT31;63749;49.186;9.222;2023-03-01T01:52:13;-1.48;80.04
75170;SHT31;63749;49.186;9.222;2023-03-01T01:54:53;-1.46;79.80
75170;SHT31;63749;49.186;9.222;2023-03-01T01:57:22;-1.48;79.90
75170;SHT31;63749;49.186;9.222;2023-03-01T01:59:52;-1.42;79.44
75170;SHT31;63749;49.186;9.222;2023-03-01T02:02:20;-1.42;79.20
75170;SHT31;63749;49.186;9.222;2023-03-01T02:04:47;-1.53;79.68
75170;SHT31;63749;49.186;9.222;2023-03-01T02:07:21;-1.56;79.60
75170;SHT31;63749;49.186;9.222;2023-03-01T02:09:49;-1.63;79.89
75170;SHT31;63749;49.186;9.222;2023-03-01T02:12:16;-1.74;80.42
75170;SHT31;63749;49.186;9.222;2023-03-01T02:14:43;-1.80;80.39
75170;SHT31;63749;49.186;9.222;2023-03-01T02:17:10;-1.87;80.68
75170;SHT31;63749;49.186;9.222;2023-03-01T02:22:22;-1.77;80.49
75170;SHT31;63749;49.186;9.222;2023-03-01T02:25:41;-1.70;80.22
75170;SHT31;63749;49.186;9.222;2023-03-01T02:30:28;-1.59;79.96
75170;SHT31;63749;49.186;9.222;2023-03-01T02:32:56;-1.60;79.64
75170;SHT31;63749;49.186;9.222;2023-03-01T02:35:29;-1.55;79.61
75170;SHT31;63749;49.186;9.222;2023-03-01T02:37:57;-1.62;79.72
75170;SHT31;63749;49.186;9.222;2023-03-01T02:40:25;-1.58;79.47
75170;SHT31;63749;49.186;9.222;2023-03-01T02:42:56;-1.59;79.60
75170;SHT31;63749;49.186;9.222;2023-03-01T02:45:21;-1.60;79.54
75170;SHT31;63749;49.186;9.222;2023-03-01T02:47:48;-1.67;79.89
75170;SHT31;63749;49.186;9.222;2023-03-01T02:53:18;-1.77;80.28
75170;SHT31;63749;49.186;9.222;2023-03-01T02:55:46;-1.80;80.55
75170;SHT31;63749;49.186;9.222;2023-03-01T02:58:11;-1.86;80.96
75170;SHT31;63749;49.186;9.222;2023-03-01T03:00:40;-1.93;80.92
75170;SHT31;63749;49.186;9.222;2023-03-01T03:03:21;-1.97;81.01
75170;SHT31;63749;49.186;9.222;2023-03-01T03:05:47;-1.86;80.77
75170;SHT31;63749;49.186;9.222;2023-03-01T03:08:13;-1.89;80.73
75170;SHT31;63749;49.186;9.222;2023-03-01T03:10:41;-1.98;81.17
75170;SHT31;63749;49.186;9.222;2023-03-01T03:13:13;-2.02;81.37
75170;SHT31;63749;49.186;9.222;2023-03-01T03:15:40;-2.14;81.77
75170;SHT31;63749;49.186;9.222;2023-03-01T03:18:10;-2.18;82.21
75170;SHT31;63749;49.186;9.222;2023-03-01T03:20:36;-2.21;82.93
75170;SHT31;63749;49.186;9.222;2023-03-01T03:23:03;-2.20;83.05
75170;SHT31;63749;49.186;9.222;2023-03-01T03:25:28;-2.15;82.73
75170;SHT31;63749;49.186;9.222;2023-03-01T03:27:55;-2.22;82.26
75170;SHT31;63749;49.186;9.222;2023-03-01T03:30:27;-2.25;82.46
75170;SHT31;63749;49.186;9.222;2023-03-01T03:32:53;-2.25;82.52
75170;SHT31;63749;49.186;9.222;2023-03-01T03:35:20;-2.32;82.64
75170;SHT31;63749;49.186;9.222;2023-03-01T03:37:47;-2.27;82.31
75170;SHT31;63749;49.186;9.222;2023-03-01T03:40:33;-2.30;82.41
75170;SHT31;63749;49.186;9.222;2023-03-01T03:42:59;-2.35;82.85
75170;SHT31;63749;49.186;9.222;2023-03-01T03:45:25;-2.37;82.72
75170;SHT31;63749;49.186;9.222;2023-03-01T03:47:50;-2.37;82.93
75170;SHT31;63749;49.186;9.222;2023-03-01T03:50:17;-2.35;82.78
75170;SHT31;63749;49.186;9.222;2023-03-01T03:52:42;-2.38;82.74
75170;SHT31;63749;49.186;9.222;2023-03-01T03:55:10;-2.37;82.81
75170;SHT31;63749;49.186;9.222;2023-03-01T03:57:46;-2.24;82.47
75170;SHT31;63749;49.186;9.222;2023-03-01T04:00:17;-2.20;82.35
75170;SHT31;63749;49.186;9.222;2023-03-01T04:02:45;-2.18;82.12
75170;SHT31;63749;49.186;9.222;2023-03-01T04:05:13;-2.12;81.86
75170;SHT31;63749;49.186;9.222;2023-03-01T04:07:39;-2.24;81.77
75170;SHT31;63749;49.186;9.222;2023-03-01T04:10:07;-2.25;82.13
75170;SHT31;63749;49.186;9.222;2023-03-01T04:12:34;-2.37;82.37
75170;SHT31;63749;49.186;9.222;2023-03-01T04:15:00;-2.37;82.52
75170;SHT31;63749;49.186;9.222;2023-03-01T04:17:26;-2.42;82.55
75170;SHT31;63749;49.186;9.222;2023-03-01T04:19:51;-2.55;83.07
75170;SHT31;63749;49.186;9.222;2023-03-01T04:22:17;-2.68;83.54
75170;SHT31;63749;49.186;9.222;2023-03-01T04:24:44;-2.65;83.69
75170;SHT31;63749;49.186;9.222;2023-03-01T04:27:10;-2.66;83.83
75170;SHT31;63749;49.186;9.222;2023-03-01T04:29:35;-2.68;83.94
75170;SHT31;63749;49.186;9.222;2023-03-01T04:32:01;-2.68;84.02
75170;SHT31;63749;49.186;9.222;2023-03-01T04:34:26;-2.63;83.83
75170;SHT31;63749;49.186;9.222;2023-03-01T04:36:52;-2.68;83.90
75170;SHT31;63749;49.186;9.222;2023-03-01T04:39:17;-2.65;83.80
75170;SHT31;63749;49.186;9.222;2023-03-01T04:41:43;-2.62;83.82
75170;SHT31;63749;49.186;9.222;2023-03-01T04:44:09;-2.56;83.77
75170;SHT31;63749;49.186;9.222;2023-03-01T04:46:34;-2.52;83.59
75170;SHT31;63749;49.186;9.222;2023-03-01T04:49:00;-2.59;83.63
75170;SHT31;63749;49.186;9.222;2023-03-01T04:51:25;-2.70;83.81
75170;SHT31;63749;49.186;9.222;2023-03-01T04:53:51;-2.79;84.12
75170;SHT31;63749;49.186;9.222;2023-03-01T04:56:16;-2.83;84.46
75170;SHT31;63749;49.186;9.222;2023-03-01T04:58:43;-2.87;84.70
75170;SHT31;63749;49.186;9.222;2023-03-01T05:01:13;-2.90;84.75
75170;SHT31;63749;49.186;9.222;2023-03-01T05:03:43;-2.94;84.65
75170;SHT31;63749;49.186;9.222;2023-03-01T05:06:09;-2.99;85.39
75170;SHT31;63749;49.186;9.222;2023-03-01T05:08:36;-2.91;84.91
75170;SHT31;63749;49.186;9.222;2023-03-01T05:11:02;-2.89;84.65
75170;SHT31;63749;49.186;9.222;2023-03-01T05:13:28;-2.76;84.35
75170;SHT31;63749;49.186;9.222;2023-03-01T05:15:56;-2.65;83.89
75170;SHT31;63749;49.186;9.222;2023-03-01T05:18:23;-2.60;83.57
75170;SHT31;63749;49.186;9.222;2023-03-01T05:20:54;-2.52;83.07
75170;SHT31;63749;49.186;9.222;2023-03-01T05:23:22;-2.24;82.26
75170;SHT31;63749;49.186;9.222;2023-03-01T05:25:48;-2.14;81.57
75170;SHT31;63749;49.186;9.222;2023-03-01T05:28:14;-2.12;81.48
75170;SHT31;63749;49.186;9.222;2023-03-01T05:30:40;-2.17;81.60
75170;SHT31;63749;49.186;9.222;2023-03-01T05:33:07;-2.10;81.67
75170;SHT31;63749;49.186;9.222;2023-03-01T05:35:41;-2.10;81.14
75170;SHT31;63749;49.186;9.222;2023-03-01T05:38:11;-2.11;81.11
75170;SHT31;63749;49.186;9.222;2023-03-01T05:40:41;-2.14;81.35
75170;SHT31;63749;49.186;9.222;2023-03-01T05:43:08;-2.21;81.60
75170;SHT31;63749;49.186;9.222;2023-03-01T05:45:36;-2.28;81.85
75170;SHT31;63749;49.186;9.222;2023-03-01T05:48:01;-2.20;81.61
75170;SHT31;63749;49.186;9.222;2023-03-01T05:50:29;-2.10;81.57
75170;SHT31;63749;49.186;9.222;2023-03-01T05:53:03;-2.07;81.04
75170;SHT31;63749;49.186;9.222;2023-03-01T05:55:32;-2.07;80.80
75170;SHT31;63749;49.186;9.222;2023-03-01T05:58:02;-2.05;80.83
75170;SHT31;63749;49.186;9.222;2023-03-01T06:00:29;-2.10;80.98
75170;SHT31;63749;49.186;9.222;2023-03-01T06:02:56;-2.08;80.91
75170;SHT31;63749;49.186;9.222;2023-03-01T06:05:22;-2.14;81.55
75170;SHT31;63749;49.186;9.222;2023-03-01T06:07:48;-2.12;80.87
75170;SHT31;63749;49.186;9.222;2023-03-01T06:10:14;-2.15;81.43
75170;SHT31;63749;49.186;9.222;2023-03-01T06:12:41;-2.18;81.51
75170;SHT31;63749;49.186;9.222;2023-03-01T06:15:07;-2.22;81.65
75170;SHT31;63749;49.186;9.222;2023-03-01T06:17:35;-2.27;81.71
75170;SHT31;63749;49.186;9.222;2023-03-01T06:20:14;-2.31;82.27
75170;SHT31;63749;49.186;9.222;2023-03-01T06:22:40;-2.22;81.46
75170;SHT31;63749;49.186;9.222;2023-03-01T06:25:06;-2.25;82.13
75170;SHT31;63749;49.186;9.222;2023-03-01T06:27:32;-2.20;81.56
75170;SHT31;63749;49.186;9.222;2023-03-01T06:29:57;-2.14;81.22
75170;SHT31;63749;49.186;9.222;2023-03-01T06:32:23;-2.10;81.06
75170;SHT31;63749;49.186;9.222;2023-03-01T06:34:49;-2.01;80.32
75170;SHT31;63749;49.186;9.222;2023-03-01T06:37:15;-1.93;80.38
75170;SHT31;63749;49.186;9.222;2023-03-01T06:39:40;-1.95;80.40
75170;SHT31;63749;49.186;9.222;2023-03-01T06:42:07;-1.93;80.58
75170;SHT31;63749;49.186;9.222;2023-03-01T06:44:33;-1.77;80.68
75170;SHT31;63749;49.186;9.222;2023-03-01T06:46:58;-1.62;80.02
75170;SHT31;63749;49.186;9.222;2023-03-01T06:49:24;-1.34;81.82
75170;SHT31;63749;49.186;9.222;2023-03-01T06:51:49;-1.38;78.44
75170;SHT31;63749;49.186;9.222;2023-03-01T06:54:15;-1.01;79.96
75170;SHT31;63749;49.186;9.222;2023-03-01T06:56:40;-1.02;78.24
75170;SHT31;63749;49.186;9.222;2023-03-01T06:59:05;-0.97;78.65
75170;SHT31;63749;49.186;9.222;2023-03-01T07:01:31;-0.44;81.14
75170;SHT31;63749;49.186;9.222;2023-03-01T07:03:57;0.03;81.69
75170;SHT31;63749;49.186;9.222;2023-03-01T07:06:23;1.11;78.79
75170;SHT31;63749;49.186;9.222;2023-03-01T07:08:48;0.59;74.76
75170;SHT31;63749;49.186;9.222;2023-03-01T07:11:14;0.85;77.45
75170;SHT31;63749;49.186;9.222;2023-03-01T07:13:39;1.17;76.87
75170;SHT31;63749;49.186;9.222;2023-03-01T07:16:05;1.04;73.36
75170;SHT31;63749;49.186;9.222;2023-03-01T07:18:30;1.52;76.01
75170;SHT31;63749;49.186;9.222;2023-03-01T07:20:56;1.52;72.41
75170;SHT31;63749;49.186;9.222;2023-03-01T07:23:21;1.35;71.35
75170;SHT31;63749;49.186;9.222;2023-03-01T07:25:53;0.97;70.28
75170;SHT31;63749;49.186;9.222;2023-03-01T07:28:19;0.97;72.75
75170;SHT31;63749;49.186;9.222;2023-03-01T07:30:45;0.88;71.15
75170;SHT31;63749;49.186;9.222;2023-03-01T07:33:10;1.50;73.26
75170;SHT31;63749;49.186;9.222;2023-03-01T07:35:36;1.18;71.73
75170;SHT31;63749;49.186;9.222;2023-03-01T07:38:01;1.35;73.12
75170;SHT31;63749;49.186;9.222;2023-03-01T07:40:26;1.28;73.60
75170;SHT31;63749;49.186;9.222;2023-03-01T07:42:56;1.84;70.59
75170;SHT31;63749;49.186;9.222;2023-03-01T07:45:23;1.40;70.73
75170;SHT31;63749;49.186;9.222;2023-03-01T07:47:50;2.06;67.26
75170;SHT31;63749;49.186;9.222;2023-03-01T07:50:15;1.50;67.81
75170;SHT31;63749;49.186;9.222;2023-03-01T07:52:41;1.62;70.12
75170;SHT31;63749;49.186;9.222;2023-03-01T07:55:07;1.77;70.24
75170;SHT31;63749;49.186;9.222;2023-03-01T07:57:32;1.83;68.26
75170;SHT31;63749;49.186;9.222;2023-03-01T07:59:57;1.53;68.19
75170;SHT31;63749;49.186;9.222;2023-03-01T08:02:23;1.77;68.54
75170;SHT31;63749;49.186;9.222;2023-03-01T08:04:48;1.91;68.67
75170;SHT31;63749;49.186;9.222;2023-03-01T08:07:14;1.62;67.39
75170;SHT31;63749;49.186;9.222;2023-03-01T08:09:39;2.04;66.37
75170;SHT31;63749;49.186;9.222;2023-03-01T08:12:05;2.01;66.65
75170;SHT31;63749;49.186;9.222;2023-03-01T08:14:32;1.55;66.07
75170;SHT31;63749;49.186;9.222;2023-03-01T08:16:57;1.50;67.81
75170;SHT31;63749;49.186;9.222;2023-03-01T08:19:23;1.36;67.05
75170;SHT31;63749;49.186;9.222;2023-03-01T08:21:49;1.38;68.20
75170;SHT31;63749;49.186;9.222;2023-03-01T08:24:14;1.40;67.41
75170;SHT31;63749;49.186;9.222;2023-03-01T08:26:39;1.45;67.51
75170;SHT31;63749;49.186;9.222;2023-03-01T08:29:05;1.38;66.94
75170;SHT31;63749;49.186;9.222;2023-03-01T08:31:38;1.42;68.13
75170;SHT31;63749;49.186;9.222;2023-03-01T08:34:10;1.52;67.48
75170;SHT31;63749;49.186;9.222;2023-03-01T08:36:38;1.53;65.63
75170;SHT31;63749;49.186;9.222;2023-03-01T08:39:05;1.63;65.57
75170;SHT31;63749;49.186;9.222;2023-03-01T08:41:31;1.59;66.27
75170;SHT31;63749;49.186;9.222;2023-03-01T08:43:57;1.83;66.66
75170;SHT31;63749;49.186;9.222;2023-03-01T08:46:30;1.84;64.86
75170;SHT31;63749;49.186;9.222;2023-03-01T08:48:55;1.84;66.00
75170;SHT31;63749;49.186;9.222;2023-03-01T08:51:22;2.07;65.45
75170;SHT31;63749;49.186;9.222;2023-03-01T08:53:48;2.15;64.51
75170;SHT31;63749;49.186;9.222;2023-03-01T08:56:14;2.14;64.27
75170;SHT31;63749;49.186;9.222;2023-03-01T08:58:40;2.14;64.69
75170;SHT31;63749;49.186;9.222;2023-03-01T09:01:09;2.14;63.74
75170;SHT31;63749;49.186;9.222;2023-03-01T09:03:34;2.24;63.98
75170;SHT31;63749;49.186;9.222;2023-03-01T09:06:01;2.29;63.76
75170;SHT31;63749;49.186;9.222;2023-03-01T09:08:27;2.53;63.51
75170;SHT31;63749;49.186;9.222;2023-03-01T09:10:52;2.72;63.45
75170;SHT31;63749;49.186;9.222;2023-03-01T09:13:18;2.85;62.51
75170;SHT31;63749;49.186;9.222;2023-03-01T09:15:43;2.89;62.01
75170;SHT31;63749;49.186;9.222;2023-03-01T09:18:08;2.92;62.83
75170;SHT31;63749;49.186;9.222;2023-03-01T09:20:34;2.75;61.92
75170;SHT31;63749;49.186;9.222;2023-03-01T09:22:59;2.76;62.17
75170;SHT31;63749;49.186;9.222;2023-03-01T09:25:25;3.08;63.16
75170;SHT31;63749;49.186;9.222;2023-03-01T09:27:51;3.18;61.69
75170;SHT31;63749;49.186;9.222;2023-03-01T09:30:17;3.21;61.56
75170;SHT31;63749;49.186;9.222;2023-03-01T09:32:43;3.35;61.46
75170;SHT31;63749;49.186;9.222;2023-03-01T09:35:10;3.34;59.99
75170;SHT31;63749;49.186;9.222;2023-03-01T09:37:37;3.47;60.80
75170;SHT31;63749;49.186;9.222;2023-03-01T09:40:04;3.38;60.53
75170;SHT31;63749;49.186;9.222;2023-03-01T09:42:32;3.39;59.70
75170;SHT31;63749;49.186;9.222;2023-03-01T09:45:10;3.52;60.53
75170;SHT31;63749;49.186;9.222;2023-03-01T09:47:36;3.50;59.66
75170;SHT31;63749;49.186;9.222;2023-03-01T09:50:11;3.69;59.93
75170;SHT31;63749;49.186;9.222;2023-03-01T09:52:50;3.78;59.51
75170;SHT31;63749;49.186;9.222;2023-03-01T09:55:21;3.95;59.11
75170;SHT31;63749;49.186;9.222;2023-03-01T09:57:55;3.85;59.85
75170;SHT31;63749;49.186;9.222;2023-03-01T10:00:46;3.95;59.62
75170;SHT31;63749;49.186;9.222;2023-03-01T10:03:16;4.30;59.31
75170;SHT31;63749;49.186;9.222;2023-03-01T10:08:40;4.27;58.64
75170;SHT31;63749;49.186;9.222;2023-03-01T10:11:41;4.46;58.60
75170;SHT31;63749;49.186;9.222;2023-03-01T10:14:30;4.36;57.87
75170;SHT31;63749;49.186;9.222;2023-03-01T10:17:04;4.51;58.11
75170;SHT31;63749;49.186;9.222;2023-03-01T10:19:34;4.57;57.78
75170;SHT31;63749;49.186;9.222;2023-03-01T10:24:41;4.50;57.41
75170;SHT31;63749;49.186;9.222;2023-03-01T10:27:30;4.68;57.24
75170;SHT31;63749;49.186;9.222;2023-03-01T10:30:32;4.69;57.50
75170;SHT31;63749;49.186;9.222;2023-03-01T10:32:56;4.72;56.83
75170;SHT31;63749;49.186;9.222;2023-03-01T10:35:28;4.89;57.09
75170;SHT31;63749;49.186;9.222;2023-03-01T10:40:23;5.11;56.57
75170;SHT31;63749;49.186;9.222;2023-03-01T10:42:49;5.30;57.24
75170;SHT31;63749;49.186;9.222;2023-03-01T10:48:08;5.44;56.82
75170;SHT31;63749;49.186;9.222;2023-03-01T10:50:35;5.71;55.58
75170;SHT31;63749;49.186;9.222;2023-03-01T10:53:04;5.65;54.90
75170;SHT31;63749;49.186;9.222;2023-03-01T10:55:36;5.63;54.75
75170;SHT31;63749;49.186;9.222;2023-03-01T10:58:16;5.70;55.11
75170;SHT31;63749;49.186;9.222;2023-03-01T11:00:54;5.90;54.19
75170;SHT31;63749;49.186;9.222;2023-03-01T11:03:27;5.75;53.98
75170;SHT31;63749;49.186;9.222;2023-03-01T11:05:58;5.74;54.12
75170;SHT31;63749;49.186;9.222;2023-03-01T11:08:36;5.84;54.03
75170;SHT31;63749;49.186;9.222;2023-03-01T11:11:34;6.21;55.96
75170;SHT31;63749;49.186;9.222;2023-03-01T11:14:05;6.33;53.11
75170;SHT31;63749;49.186;9.222;2023-03-01T11:16:37;6.74;53.39
75170;SHT31;63749;49.186;9.222;2023-03-01T11:21:36;6.81;52.83
75170;SHT31;63749;49.186;9.222;2023-03-01T11:24:06;6.88;51.47
75170;SHT31;63749;49.186;9.222;2023-03-01T11:26:37;6.74;51.51
75170;SHT31;63749;49.186;9.222;2023-03-01T11:29:13;6.57;51.80
75170;SHT31;63749;49.186;9.222;2023-03-01T11:31:42;6.29;52.23
75170;SHT31;63749;49.186;9.222;2023-03-01T11:34:14;6.63;52.11
75170;SHT31;63749;49.186;9.222;2023-03-01T11:36:52;6.52;51.95
75170;SHT31;63749;49.186;9.222;2023-03-01T11:39:36;6.66;51.77
75170;SHT31;63749;49.186;9.222;2023-03-01T11:42:12;6.72;51.99
75170;SHT31;63749;49.186;9.222;2023-03-01T11:44:41;6.93;51.06
75170;SHT31;63749;49.186;9.222;2023-03-01T11:55:29;6.97;50.79
75170;SHT31;63749;49.186;9.222;2023-03-01T11:58:22;7.16;50.29
75170;SHT31;63749;49.186;9.222;2023-03-01T12:09:19;7.42;49.59
75170;SHT31;63749;49.186;9.222;2023-03-01T12:14:59;7.39;49.22
75170;SHT31;63749;49.186;9.222;2023-03-01T12:17:59;7.66;49.33
75170;SHT31;63749;49.186;9.222;2023-03-01T12:20:36;7.87;49.23
75170;SHT31;63749;49.186;9.222;2023-03-01T12:26:20;7.58;49.03
75170;SHT31;63749;49.186;9.222;2023-03-01T12:37:36;7.87;48.49
75170;SHT31;63749;49.186;9.222;2023-03-01T12:51:19;8.24;48.07
75170;SHT31;63749;49.186;9.222;2023-03-01T12:53:50;8.34;47.00
75170;SHT31;63749;49.186;9.222;2023-03-01T12:56:37;8.17;47.90
75170;SHT31;63749;49.186;9.222;2023-03-01T13:02:04;8.28;47.50
75170;SHT31;63749;49.186;9.222;2023-03-01T13:07:29;8.55;46.76
75170;SHT31;63749;49.186;9.222;2023-03-01T13:10:24;8.41;46.70
75170;SHT31;63749;49.186;9.222;2023-03-01T13:17:54;8.66;46.04
75170;SHT31;63749;49.186;9.222;2023-03-01T13:20:23;8.73;45.91
75170;SHT31;63749;49.186;9.222;2023-03-01T13:23:04;9.27;44.61
75170;SHT31;63749;49.186;9.222;2023-03-01T13:25:31;10.24;42.04
75170;SHT31;63749;49.186;9.222;2023-03-01T13:31:04;11.16;40.07
75170;SHT31;63749;49.186;9.222;2023-03-01T13:35:58;11.97;37.85
75170;SHT31;63749;49.186;9.222;2023-03-01T13:38:57;12.29;38.85
75170;SHT31;63749;49.186;9.222;2023-03-01T13:44:32;12.86;36.83
75170;SHT31;63749;49.186;9.222;2023-03-01T13:49:52;12.95;36.34
75170;SHT31;63749;49.186;9.222;2023-03-01T13:54:58;13.65;35.47
75170;SHT31;63749;49.186;9.222;2023-03-01T13:57:26;13.41;35.09
75170;SHT31;63749;49.186;9.222;2023-03-01T13:59:53;13.62;34.64
75170;SHT31;63749;49.186;9.222;2023-03-01T14:02:18;13.99;34.48
75170;SHT31;63749;49.186;9.222;2023-03-01T14:04:56;13.48;34.49
75170;SHT31;63749;49.186;9.222;2023-03-01T14:07:23;13.72;34.21
75170;SHT31;63749;49.186;9.222;2023-03-01T14:10:01;13.85;34.56
75170;SHT31;63749;49.186;9.222;2023-03-01T14:12:49;14.88;32.81
75170;SHT31;63749;49.186;9.222;2023-03-01T14:15:25;14.51;33.10
75170;SHT31;63749;49.186;9.222;2023-03-01T14:18:18;13.89;34.08
75170;SHT31;63749;49.186;9.222;2023-03-01T14:20:42;14.71;33.57
75170;SHT31;63749;49.186;9.222;2023-03-01T14:23:16;14.68;33.14
75170;SHT31;63749;49.186;9.222;2023-03-01T14:25:54;15.42;31.66
75170;SHT31;63749;49.186;9.222;2023-03-01T14:28:23;14.78;32.55
75170;SHT31;63749;49.186;9.222;2023-03-01T14:30:51;15.67;31.53
75170;SHT31;63749;49.186;9.222;2023-03-01T14:33:35;15.01;31.98
75170;SHT31;63749;49.186;9.222;2023-03-01T14:36:06;15.38;32.19
75170;SHT31;63749;49.186;9.222;2023-03-01T14:38:58;14.80;33.14
75170;SHT31;63749;49.186;9.222;2023-03-01T14:41:33;15.39;32.30
75170;SHT31;63749;49.186;9.222;2023-03-01T14:44:05;16.04;30.97
75170;SHT31;63749;49.186;9.222;2023-03-01T14:46:38;15.45;31.51
75170;SHT31;63749;49.186;9.222;2023-03-01T14:49:14;14.29;32.78
75170;SHT31;63749;49.186;9.222;2023-03-01T14:51:43;13.90;33.26
75170;SHT31;63749;49.186;9.222;2023-03-01T14:56:46;14.81;32.44
75170;SHT31;63749;49.186;9.222;2023-03-01T14:59:12;15.04;32.25
75170;SHT31;63749;49.186;9.222;2023-03-01T15:01:39;15.06;31.45
75170;SHT31;63749;49.186;9.222;2023-03-01T15:04:05;14.60;32.58
75170;SHT31;63749;49.186;9.222;2023-03-01T15:06:31;14.53;32.90
75170;SHT31;63749;49.186;9.222;2023-03-01T15:08:57;14.95;33.21
75170;SHT31;63749;49.186;9.222;2023-03-01T15:11:30;14.75;32.47
75170;SHT31;63749;49.186;9.222;2023-03-01T15:13:55;14.83;31.98
75170;SHT31;63749;49.186;9.222;2023-03-01T15:18:55;13.47;34.32
75170;SHT31;63749;49.186;9.222;2023-03-01T15:24:05;13.78;33.82
75170;SHT31;63749;49.186;9.222;2023-03-01T15:26:38;14.19;33.71
75170;SHT31;63749;49.186;9.222;2023-03-01T15:29:04;13.85;34.43
75170;SHT31;63749;49.186;9.222;2023-03-01T15:31:32;13.50;33.83
75170;SHT31;63749;49.186;9.222;2023-03-01T15:34:23;13.62;35.20
75170;SHT31;63749;49.186;9.222;2023-03-01T15:36:51;12.89;34.91
75170;SHT31;63749;49.186;9.222;2023-03-01T15:39:37;13.58;34.59
75170;SHT31;63749;49.186;9.222;2023-03-01T15:44:35;14.29;34.76
75170;SHT31;63749;49.186;9.222;2023-03-01T15:47:07;13.79;33.90
75170;SHT31;63749;49.186;9.222;2023-03-01T15:49:41;13.21;34.99
75170;SHT31;63749;49.186;9.222;2023-03-01T15:52:22;12.96;35.44
75170;SHT31;63749;49.186;9.222;2023-03-01T15:54:55;12.72;35.96
75170;SHT31;63749;49.186;9.222;2023-03-01T15:57:20;12.45;36.81
75170;SHT31;63749;49.186;9.222;2023-03-01T15:59:46;11.42;38.62
75170;SHT31;63749;49.186;9.222;2023-03-01T16:02:11;10.60;40.29
75170;SHT31;63749;49.186;9.222;2023-03-01T16:04:38;10.02;41.82
75170;SHT31;63749;49.186;9.222;2023-03-01T16:07:03;9.95;42.54
75170;SHT31;63749;49.186;9.222;2023-03-01T16:09:29;9.43;43.50
75170;SHT31;63749;49.186;9.222;2023-03-01T16:11:54;9.22;44.46
75170;SHT31;63749;49.186;9.222;2023-03-01T16:14:20;8.83;44.56
75170;SHT31;63749;49.186;9.222;2023-03-01T16:16:46;8.59;45.44
75170;SHT31;63749;49.186;9.222;2023-03-01T16:19:13;8.52;46.53
75170;SHT31;63749;49.186;9.222;2023-03-01T16:21:38;8.31;46.65
75170;SHT31;63749;49.186;9.222;2023-03-01T16:24:04;8.10;47.16
75170;SHT31;63749;49.186;9.222;2023-03-01T16:26:29;7.90;48.28
75170;SHT31;63749;49.186;9.222;2023-03-01T16:28:56;7.74;48.77
75170;SHT31;63749;49.186;9.222;2023-03-01T16:31:22;7.70;49.33
75170;SHT31;63749;49.186;9.222;2023-03-01T16:33:47;7.65;49.98
75170;SHT31;63749;49.186;9.222;2023-03-01T16:36:17;7.52;49.42
75170;SHT31;63749;49.186;9.222;2023-03-01T16:38:43;7.39;50.00
75170;SHT31;63749;49.186;9.222;2023-03-01T16:41:14;7.22;50.76
75170;SHT31;63749;49.186;9.222;2023-03-01T16:43:40;7.19;50.79
75170;SHT31;63749;49.186;9.222;2023-03-01T16:46:14;7.15;51.19
75170;SHT31;63749;49.186;9.222;2023-03-01T16:48:40;7.07;51.12
75170;SHT31;63749;49.186;9.222;2023-03-01T16:51:06;6.90;51.71
75170;SHT31;63749;49.186;9.222;2023-03-01T16:53:33;6.80;51.78
75170;SHT31;63749;49.186;9.222;2023-03-01T16:56:01;6.63;52.29
75170;SHT31;63749;49.186;9.222;2023-03-01T16:58:27;6.64;52.09
75170;SHT31;63749;49.186;9.222;2023-03-01T17:00:53;6.62;51.86
75170;SHT31;63749;49.186;9.222;2023-03-01T17:03:24;6.53;52.42
75170;SHT31;63749;49.186;9.222;2023-03-01T17:05:51;6.37;52.86
75170;SHT31;63749;49.186;9.222;2023-03-01T17:08:17;6.32;52.93
75170;SHT31;63749;49.186;9.222;2023-03-01T17:10:45;6.26;53.19
75170;SHT31;63749;49.186;9.222;2023-03-01T17:13:10;6.22;53.56
75170;SHT31;63749;49.186;9.222;2023-03-01T17:15:41;6.09;54.08
75170;SHT31;63749;49.186;9.222;2023-03-01T17:18:07;5.99;54.13
75170;SHT31;63749;49.186;9.222;2023-03-01T17:20:33;5.91;54.46
75170;SHT31;63749;49.186;9.222;2023-03-01T17:22:58;5.88;54.46
75170;SHT31;63749;49.186;9.222;2023-03-01T17:25:23;5.77;55.17
75170;SHT31;63749;49.186;9.222;2023-03-01T17:27:49;5.63;55.54
75170;SHT31;63749;49.186;9.222;2023-03-01T17:30:15;5.51;56.07